sensor_id;sensor_type;location;lat;lon;timestamp;P1;durP1;ratioP1;P2;durP2;ratioP2
12725;SDS011;6427;49.754;6.106;2023-05-19T00:01:12;10.60;;;4.53;;
12725;SDS011;6427;49.754;6.106;2023-05-19T00:03:47;7.83;;;3.50;;
12725;SDS011;6427;49.754;6.106;2023-05-19T00:06:07;8.03;;;3.63;;
12725;SDS011;6427;49.754;6.106;2023-05-19T00:08:35;5.53;;;3.10;;
12725;SDS011;6427;49.754;6.106;2023-05-19T00:11:02;11.57;;;3.87;;
12725;SDS011;6427;49.754;6.106;2023-05-19T00:13:30;9.20;;;3.90;;
12725;SDS011;6427;49.754;6.106;2023-05-19T00:15:57;7.63;;;3.43;;
12725;SDS011;6427;49.754;6.106;2023-05-19T00:18:25;7.77;;;4.03;;
12725;SDS011;6427;49.754;6.106;2023-05-19T00:20:53;9.77;;;4.03;;
12725;SDS011;6427;49.754;6.106;2023-05-19T00:23:21;5.97;;;3.23;;
12725;SDS011;6427;49.754;6.106;2023-05-19T00:25:49;11.33;;;4.30;;
12725;SDS011;6427;49.754;6.106;2023-05-19T00:28:16;9.05;;;4.62;;
12725;SDS011;6427;49.754;6.106;2023-05-19T00:30:44;7.93;;;4.03;;
12725;SDS011;6427;49.754;6.106;2023-05-19T00:33:12;6.27;;;4.03;;
12725;SDS011;6427;49.754;6.106;2023-05-19T00:35:39;6.60;;;3.80;;
12725;SDS011;6427;49.754;6.106;2023-05-19T00:38:07;5.93;;;3.60;;
12725;SDS011;6427;49.754;6.106;2023-05-19T00:40:35;6.23;;;3.90;;
12725;SDS011;6427;49.754;6.106;2023-05-19T00:43:03;10.87;;;4.30;;
12725;SDS011;6427;49.754;6.106;2023-05-19T00:45:33;7.27;;;3.93;;
12725;SDS011;6427;49.754;6.106;2023-05-19T00:48:01;7.23;;;3.73;;
12725;SDS011;6427;49.754;6.106;2023-05-19T00:50:28;8.45;;;4.22;;
12725;SDS011;6427;49.754;6.106;2023-05-19T00:52:57;9.80;;;4.57;;
12725;SDS011;6427;49.754;6.106;2023-05-19T00:55:28;8.67;;;3.93;;
12725;SDS011;6427;49.754;6.106;2023-05-19T00:57:55;7.83;;;3.87;;
12725;SDS011;6427;49.754;6.106;2023-05-19T01:00:23;6.93;;;3.97;;
12725;SDS011;6427;49.754;6.106;2023-05-19T01:02:50;8.60;;;3.60;;
12725;SDS011;6427;49.754;6.106;2023-05-19T01:05:18;8.67;;;3.57;;
12725;SDS011;6427;49.754;6.106;2023-05-19T01:07:46;9.23;;;3.93;;
12725;SDS011;6427;49.754;6.106;2023-05-19T01:10:13;8.47;;;3.90;;
12725;SDS011;6427;49.754;6.106;2023-05-19T01:12:41;5.97;;;3.83;;
12725;SDS011;6427;49.754;6.106;2023-05-19T01:15:09;14.17;;;4.00;;
12725;SDS011;6427;49.754;6.106;2023-05-19T01:17:44;8.68;;;4.60;;
12725;SDS011;6427;49.754;6.106;2023-05-19T01:25:36;8.27;;;3.80;;
12725;SDS011;6427;49.754;6.106;2023-05-19T01:30:53;6.67;;;4.00;;
12725;SDS011;6427;49.754;6.106;2023-05-19T01:33:21;7.77;;;4.63;;
12725;SDS011;6427;49.754;6.106;2023-05-19T01:35:49;8.03;;;4.03;;
12725;SDS011;6427;49.754;6.106;2023-05-19T01:38:18;9.27;;;4.03;;
12725;SDS011;6427;49.754;6.106;2023-05-19T01:40:45;4.97;;;3.67;;
12725;SDS011;6427;49.754;6.106;2023-05-19T01:43:13;8.75;;;4.68;;
12725;SDS011;6427;49.754;6.106;2023-05-19T01:45:40;6.97;;;3.87;;
12725;SDS011;6427;49.754;6.106;2023-05-19T01:48:07;7.20;;;4.03;;
12725;SDS011;6427;49.754;6.106;2023-05-19T01:50:35;13.40;;;3.50;;
12725;SDS011;6427;49.754;6.106;2023-05-19T01:53:02;7.53;;;4.18;;
12725;SDS011;6427;49.754;6.106;2023-05-19T01:55:30;7.57;;;4.03;;
12725;SDS011;6427;49.754;6.106;2023-05-19T01:58:16;4.73;;;3.53;;
12725;SDS011;6427;49.754;6.106;2023-05-19T02:00:48;8.73;;;4.30;;
12725;SDS011;6427;49.754;6.106;2023-05-19T02:05:54;8.27;;;3.63;;
12725;SDS011;6427;49.754;6.106;2023-05-19T02:08:36;6.90;;;3.37;;
12725;SDS011;6427;49.754;6.106;2023-05-19T02:11:02;6.23;;;3.13;;
12725;SDS011;6427;49.754;6.106;2023-05-19T02:13:30;6.20;;;3.47;;
12725;SDS011;6427;49.754;6.106;2023-05-19T02:15:57;7.67;;;4.00;;
12725;SDS011;6427;49.754;6.106;2023-05-19T02:18:24;7.25;;;4.35;;
12725;SDS011;6427;49.754;6.106;2023-05-19T02:20:52;9.13;;;3.87;;
12725;SDS011;6427;49.754;6.106;2023-05-19T02:23:21;6.73;;;3.70;;
12725;SDS011;6427;49.754;6.106;2023-05-19T02:25:48;8.03;;;4.00;;
12725;SDS011;6427;49.754;6.106;2023-05-19T02:28:16;4.53;;;3.27;;
12725;SDS011;6427;49.754;6.106;2023-05-19T02:30:43;6.77;;;3.50;;
12725;SDS011;6427;49.754;6.106;2023-05-19T02:33:11;5.70;;;3.73;;
12725;SDS011;6427;49.754;6.106;2023-05-19T02:35:39;11.10;;;3.70;;
12725;SDS011;6427;49.754;6.106;2023-05-19T02:38:06;6.10;;;3.37;;
12725;SDS011;6427;49.754;6.106;2023-05-19T02:40:34;9.40;;;3.60;;
12725;SDS011;6427;49.754;6.106;2023-05-19T02:43:02;6.97;;;3.00;;
12725;SDS011;6427;49.754;6.106;2023-05-19T02:45:29;7.85;;;3.70;;
12725;SDS011;6427;49.754;6.106;2023-05-19T02:47:58;9.37;;;3.07;;
12725;SDS011;6427;49.754;6.106;2023-05-19T02:50:25;5.47;;;3.40;;
12725;SDS011;6427;49.754;6.106;2023-05-19T02:52:53;6.27;;;2.83;;
12725;SDS011;6427;49.754;6.106;2023-05-19T02:55:20;9.47;;;3.17;;
12725;SDS011;6427;49.754;6.106;2023-05-19T02:57:48;7.00;;;3.47;;
12725;SDS011;6427;49.754;6.106;2023-05-19T03:00:16;5.10;;;3.40;;
12725;SDS011;6427;49.754;6.106;2023-05-19T03:02:43;8.02;;;4.28;;
12725;SDS011;6427;49.754;6.106;2023-05-19T03:05:11;8.45;;;4.37;;
12725;SDS011;6427;49.754;6.106;2023-05-19T03:07:39;7.07;;;3.50;;
12725;SDS011;6427;49.754;6.106;2023-05-19T03:10:07;9.90;;;4.10;;
12725;SDS011;6427;49.754;6.106;2023-05-19T03:12:35;6.80;;;3.10;;
12725;SDS011;6427;49.754;6.106;2023-05-19T03:15:02;5.67;;;3.23;;
12725;SDS011;6427;49.754;6.106;2023-05-19T03:17:30;8.73;;;3.40;;
12725;SDS011;6427;49.754;6.106;2023-05-19T03:19:57;10.27;;;3.37;;
12725;SDS011;6427;49.754;6.106;2023-05-19T03:22:25;4.77;;;3.70;;
12725;SDS011;6427;49.754;6.106;2023-05-19T03:24:53;6.47;;;3.40;;
12725;SDS011;6427;49.754;6.106;2023-05-19T03:27:20;9.93;;;3.77;;
12725;SDS011;6427;49.754;6.106;2023-05-19T03:29:49;10.40;;;4.23;;
12725;SDS011;6427;49.754;6.106;2023-05-19T03:32:16;9.60;;;4.40;;
12725;SDS011;6427;49.754;6.106;2023-05-19T03:34:45;7.47;;;3.93;;
12725;SDS011;6427;49.754;6.106;2023-05-19T03:37:12;5.37;;;4.00;;
12725;SDS011;6427;49.754;6.106;2023-05-19T03:39:40;7.60;;;4.40;;
12725;SDS011;6427;49.754;6.106;2023-05-19T03:42:08;8.73;;;3.63;;
12725;SDS011;6427;49.754;6.106;2023-05-19T03:44:37;7.63;;;4.07;;
12725;SDS011;6427;49.754;6.106;2023-05-19T03:47:04;6.43;;;3.63;;
12725;SDS011;6427;49.754;6.106;2023-05-19T03:49:33;8.37;;;3.73;;
12725;SDS011;6427;49.754;6.106;2023-05-19T03:52:01;8.17;;;4.03;;
12725;SDS011;6427;49.754;6.106;2023-05-19T03:54:29;5.93;;;3.67;;
12725;SDS011;6427;49.754;6.106;2023-05-19T03:56:56;7.40;;;3.40;;
12725;SDS011;6427;49.754;6.106;2023-05-19T03:59:24;8.40;;;4.17;;
12725;SDS011;6427;49.754;6.106;2023-05-19T04:01:52;8.60;;;4.10;;
12725;SDS011;6427;49.754;6.106;2023-05-19T04:04:19;6.03;;;3.47;;
12725;SDS011;6427;49.754;6.106;2023-05-19T04:06:47;5.13;;;3.10;;
12725;SDS011;6427;49.754;6.106;2023-05-19T04:09:15;6.63;;;3.90;;
12725;SDS011;6427;49.754;6.106;2023-05-19T04:11:43;7.03;;;4.28;;
12725;SDS011;6427;49.754;6.106;2023-05-19T04:14:10;7.57;;;4.10;;
12725;SDS011;6427;49.754;6.106;2023-05-19T04:16:38;10.17;;;4.30;;
12725;SDS011;6427;49.754;6.106;2023-05-19T04:19:06;8.03;;;3.60;;
12725;SDS011;6427;49.754;6.106;2023-05-19T04:21:33;7.73;;;4.07;;
12725;SDS011;6427;49.754;6.106;2023-05-19T04:24:01;6.43;;;4.20;;
12725;SDS011;6427;49.754;6.106;2023-05-19T04:26:29;10.60;;;4.23;;
12725;SDS011;6427;49.754;6.106;2023-05-19T04:28:56;6.53;;;4.10;;
12725;SDS011;6427;49.754;6.106;2023-05-19T04:31:24;8.17;;;3.77;;
12725;SDS011;6427;49.754;6.106;2023-05-19T04:33:52;11.97;;;4.60;;
12725;SDS011;6427;49.754;6.106;2023-05-19T04:36:19;9.18;;;4.65;;
12725;SDS011;6427;49.754;6.106;2023-05-19T04:38:47;9.60;;;4.43;;
12725;SDS011;6427;49.754;6.106;2023-05-19T04:41:14;7.82;;;5.12;;
12725;SDS011;6427;49.754;6.106;2023-05-19T04:43:42;13.97;;;4.43;;
12725;SDS011;6427;49.754;6.106;2023-05-19T04:46:10;8.13;;;4.72;;
12725;SDS011;6427;49.754;6.106;2023-05-19T04:48:37;10.23;;;4.10;;
12725;SDS011;6427;49.754;6.106;2023-05-19T04:51:05;10.87;;;4.63;;
12725;SDS011;6427;49.754;6.106;2023-05-19T04:53:33;8.83;;;3.67;;
12725;SDS011;6427;49.754;6.106;2023-05-19T04:56:01;12.47;;;4.03;;
12725;SDS011;6427;49.754;6.106;2023-05-19T04:58:29;11.53;;;4.50;;
12725;SDS011;6427;49.754;6.106;2023-05-19T05:00:56;19.30;;;5.00;;
12725;SDS011;6427;49.754;6.106;2023-05-19T05:03:24;18.70;;;5.13;;
12725;SDS011;6427;49.754;6.106;2023-05-19T05:05:51;14.98;;;5.75;;
12725;SDS011;6427;49.754;6.106;2023-05-19T05:08:19;9.47;;;4.87;;
12725;SDS011;6427;49.754;6.106;2023-05-19T05:10:49;8.10;;;4.70;;
12725;SDS011;6427;49.754;6.106;2023-05-19T05:13:19;9.20;;;4.27;;
12725;SDS011;6427;49.754;6.106;2023-05-19T05:15:46;10.80;;;4.43;;
12725;SDS011;6427;49.754;6.106;2023-05-19T05:18:14;7.10;;;3.17;;
12725;SDS011;6427;49.754;6.106;2023-05-19T05:20:42;10.83;;;4.03;;
12725;SDS011;6427;49.754;6.106;2023-05-19T05:23:10;7.00;;;3.57;;
12725;SDS011;6427;49.754;6.106;2023-05-19T05:25:37;5.63;;;3.50;;
12725;SDS011;6427;49.754;6.106;2023-05-19T05:28:06;9.90;;;4.43;;
12725;SDS011;6427;49.754;6.106;2023-05-19T05:30:33;5.47;;;2.93;;
12725;SDS011;6427;49.754;6.106;2023-05-19T05:33:02;6.20;;;2.90;;
12725;SDS011;6427;49.754;6.106;2023-05-19T05:35:30;4.23;;;2.67;;
12725;SDS011;6427;49.754;6.106;2023-05-19T05:37:58;6.30;;;3.23;;
12725;SDS011;6427;49.754;6.106;2023-05-19T05:40:25;6.97;;;3.13;;
12725;SDS011;6427;49.754;6.106;2023-05-19T05:42:54;5.47;;;2.50;;
12725;SDS011;6427;49.754;6.106;2023-05-19T05:45:21;6.77;;;3.10;;
12725;SDS011;6427;49.754;6.106;2023-05-19T05:47:49;5.77;;;3.13;;
12725;SDS011;6427;49.754;6.106;2023-05-19T05:50:17;9.10;;;2.80;;
12725;SDS011;6427;49.754;6.106;2023-05-19T05:52:47;6.87;;;2.60;;
12725;SDS011;6427;49.754;6.106;2023-05-19T05:55:15;7.67;;;2.53;;
12725;SDS011;6427;49.754;6.106;2023-05-19T05:57:45;3.53;;;2.30;;
12725;SDS011;6427;49.754;6.106;2023-05-19T06:00:13;6.00;;;2.73;;
12725;SDS011;6427;49.754;6.106;2023-05-19T06:02:47;8.47;;;2.50;;
12725;SDS011;6427;49.754;6.106;2023-05-19T06:05:13;7.47;;;3.03;;
12725;SDS011;6427;49.754;6.106;2023-05-19T06:07:41;6.60;;;2.20;;
12725;SDS011;6427;49.754;6.106;2023-05-19T06:10:10;4.63;;;2.40;;
12725;SDS011;6427;49.754;6.106;2023-05-19T06:12:38;3.13;;;2.00;;
12725;SDS011;6427;49.754;6.106;2023-05-19T06:15:06;3.87;;;2.10;;
12725;SDS011;6427;49.754;6.106;2023-05-19T06:17:34;5.53;;;2.60;;
12725;SDS011;6427;49.754;6.106;2023-05-19T06:20:02;2.50;;;2.13;;
12725;SDS011;6427;49.754;6.106;2023-05-19T06:22:29;6.47;;;2.03;;
12725;SDS011;6427;49.754;6.106;2023-05-19T06:24:57;5.07;;;2.30;;
12725;SDS011;6427;49.754;6.106;2023-05-19T06:27:24;8.87;;;2.60;;
12725;SDS011;6427;49.754;6.106;2023-05-19T06:29:52;6.67;;;2.40;;
12725;SDS011;6427;49.754;6.106;2023-05-19T06:32:20;4.30;;;2.30;;
12725;SDS011;6427;49.754;6.106;2023-05-19T06:34:48;4.60;;;2.07;;
12725;SDS011;6427;49.754;6.106;2023-05-19T06:37:16;4.90;;;2.00;;
12725;SDS011;6427;49.754;6.106;2023-05-19T06:39:43;5.73;;;1.80;;
12725;SDS011;6427;49.754;6.106;2023-05-19T06:42:11;5.07;;;2.07;;
12725;SDS011;6427;49.754;6.106;2023-05-19T06:44:39;5.17;;;1.53;;
12725;SDS011;6427;49.754;6.106;2023-05-19T06:47:06;4.17;;;1.63;;
12725;SDS011;6427;49.754;6.106;2023-05-19T06:49:34;8.23;;;2.17;;
12725;SDS011;6427;49.754;6.106;2023-05-19T06:52:02;8.23;;;1.90;;
12725;SDS011;6427;49.754;6.106;2023-05-19T06:54:29;4.30;;;1.57;;
12725;SDS011;6427;49.754;6.106;2023-05-19T06:56:57;5.97;;;2.12;;
12725;SDS011;6427;49.754;6.106;2023-05-19T06:59:24;4.90;;;2.10;;
12725;SDS011;6427;49.754;6.106;2023-05-19T07:01:52;8.63;;;1.97;;
12725;SDS011;6427;49.754;6.106;2023-05-19T07:04:20;3.53;;;1.80;;
12725;SDS011;6427;49.754;6.106;2023-05-19T07:06:48;4.23;;;1.80;;
12725;SDS011;6427;49.754;6.106;2023-05-19T07:09:16;5.50;;;1.97;;
12725;SDS011;6427;49.754;6.106;2023-05-19T07:11:43;7.30;;;1.87;;
12725;SDS011;6427;49.754;6.106;2023-05-19T07:14:11;4.77;;;1.80;;
12725;SDS011;6427;49.754;6.106;2023-05-19T07:16:39;7.63;;;1.77;;
12725;SDS011;6427;49.754;6.106;2023-05-19T07:19:06;5.67;;;2.10;;
12725;SDS011;6427;49.754;6.106;2023-05-19T07:21:34;7.13;;;1.87;;
12725;SDS011;6427;49.754;6.106;2023-05-19T07:24:01;6.80;;;1.50;;
12725;SDS011;6427;49.754;6.106;2023-05-19T07:26:30;4.50;;;1.60;;
12725;SDS011;6427;49.754;6.106;2023-05-19T07:28:57;5.10;;;1.80;;
12725;SDS011;6427;49.754;6.106;2023-05-19T07:31:25;4.47;;;1.73;;
12725;SDS011;6427;49.754;6.106;2023-05-19T07:33:53;6.00;;;2.10;;
12725;SDS011;6427;49.754;6.106;2023-05-19T07:36:20;4.43;;;2.03;;
12725;SDS011;6427;49.754;6.106;2023-05-19T07:38:48;5.13;;;2.13;;
12725;SDS011;6427;49.754;6.106;2023-05-19T07:41:16;5.77;;;1.63;;
12725;SDS011;6427;49.754;6.106;2023-05-19T07:43:44;6.83;;;2.23;;
12725;SDS011;6427;49.754;6.106;2023-05-19T07:46:12;6.73;;;2.00;;
12725;SDS011;6427;49.754;6.106;2023-05-19T07:48:40;1.87;;;1.60;;
12725;SDS011;6427;49.754;6.106;2023-05-19T07:51:08;2.60;;;1.57;;
12725;SDS011;6427;49.754;6.106;2023-05-19T07:53:35;5.77;;;1.30;;
12725;SDS011;6427;49.754;6.106;2023-05-19T07:56:03;8.73;;;3.47;;
12725;SDS011;6427;49.754;6.106;2023-05-19T07:58:30;4.70;;;2.10;;
12725;SDS011;6427;49.754;6.106;2023-05-19T08:00:58;7.87;;;2.10;;
12725;SDS011;6427;49.754;6.106;2023-05-19T08:03:26;6.87;;;2.20;;
12725;SDS011;6427;49.754;6.106;2023-05-19T08:05:53;6.77;;;1.90;;
12725;SDS011;6427;49.754;6.106;2023-05-19T08:08:21;6.20;;;1.70;;
12725;SDS011;6427;49.754;6.106;2023-05-19T08:10:48;5.97;;;1.83;;
12725;SDS011;6427;49.754;6.106;2023-05-19T08:13:16;3.17;;;1.60;;
12725;SDS011;6427;49.754;6.106;2023-05-19T08:15:44;3.40;;;1.87;;
12725;SDS011;6427;49.754;6.106;2023-05-19T08:18:12;5.07;;;2.37;;
12725;SDS011;6427;49.754;6.106;2023-05-19T08:20:40;3.80;;;1.50;;
12725;SDS011;6427;49.754;6.106;2023-05-19T08:23:08;5.97;;;1.70;;
12725;SDS011;6427;49.754;6.106;2023-05-19T08:25:37;8.43;;;1.80;;
12725;SDS011;6427;49.754;6.106;2023-05-19T08:28:04;2.23;;;1.77;;
12725;SDS011;6427;49.754;6.106;2023-05-19T08:30:33;4.57;;;1.70;;
12725;SDS011;6427;49.754;6.106;2023-05-19T08:33:01;4.87;;;2.00;;
12725;SDS011;6427;49.754;6.106;2023-05-19T08:35:29;5.10;;;1.63;;
12725;SDS011;6427;49.754;6.106;2023-05-19T08:37:56;6.27;;;2.17;;
12725;SDS011;6427;49.754;6.106;2023-05-19T08:40:25;4.87;;;2.10;;
12725;SDS011;6427;49.754;6.106;2023-05-19T08:42:52;5.13;;;2.00;;
12725;SDS011;6427;49.754;6.106;2023-05-19T08:45:21;4.87;;;2.07;;
12725;SDS011;6427;49.754;6.106;2023-05-19T08:47:49;5.33;;;1.83;;
12725;SDS011;6427;49.754;6.106;2023-05-19T08:50:20;6.77;;;2.23;;
12725;SDS011;6427;49.754;6.106;2023-05-19T08:55:30;4.77;;;2.33;;
12725;SDS011;6427;49.754;6.106;2023-05-19T08:58:02;3.90;;;1.80;;
12725;SDS011;6427;49.754;6.106;2023-05-19T09:00:29;7.13;;;2.00;;
12725;SDS011;6427;49.754;6.106;2023-05-19T09:02:58;4.33;;;1.83;;
12725;SDS011;6427;49.754;6.106;2023-05-19T09:05:26;7.03;;;1.70;;
12725;SDS011;6427;49.754;6.106;2023-05-19T09:07:54;5.20;;;2.30;;
12725;SDS011;6427;49.754;6.106;2023-05-19T09:10:22;4.60;;;1.87;;
12725;SDS011;6427;49.754;6.106;2023-05-19T09:12:50;7.17;;;2.07;;
12725;SDS011;6427;49.754;6.106;2023-05-19T09:15:18;3.03;;;1.50;;
12725;SDS011;6427;49.754;6.106;2023-05-19T09:17:45;5.20;;;1.90;;
12725;SDS011;6427;49.754;6.106;2023-05-19T09:20:13;5.47;;;1.93;;
12725;SDS011;6427;49.754;6.106;2023-05-19T09:22:45;7.30;;;2.00;;
12725;SDS011;6427;49.754;6.106;2023-05-19T09:25:19;7.37;;;1.80;;
12725;SDS011;6427;49.754;6.106;2023-05-19T09:27:46;5.57;;;1.90;;
12725;SDS011;6427;49.754;6.106;2023-05-19T09:30:17;5.22;;;1.92;;
12725;SDS011;6427;49.754;6.106;2023-05-19T09:32:42;7.63;;;2.10;;
12725;SDS011;6427;49.754;6.106;2023-05-19T09:35:10;6.20;;;1.80;;
12725;SDS011;6427;49.754;6.106;2023-05-19T09:37:40;4.97;;;1.80;;
12725;SDS011;6427;49.754;6.106;2023-05-19T09:40:08;6.40;;;1.60;;
12725;SDS011;6427;49.754;6.106;2023-05-19T09:42:36;5.33;;;1.73;;
12725;SDS011;6427;49.754;6.106;2023-05-19T09:45:03;5.22;;;1.98;;
12725;SDS011;6427;49.754;6.106;2023-05-19T09:47:38;6.13;;;2.00;;
12725;SDS011;6427;49.754;6.106;2023-05-19T09:50:05;4.87;;;1.97;;
12725;SDS011;6427;49.754;6.106;2023-05-19T09:52:33;7.47;;;1.60;;
12725;SDS011;6427;49.754;6.106;2023-05-19T09:55:03;5.60;;;1.93;;
12725;SDS011;6427;49.754;6.106;2023-05-19T09:57:33;5.07;;;2.17;;
12725;SDS011;6427;49.754;6.106;2023-05-19T10:00:04;4.20;;;1.70;;
12725;SDS011;6427;49.754;6.106;2023-05-19T10:02:41;7.80;;;1.63;;
12725;SDS011;6427;49.754;6.106;2023-05-19T10:05:11;5.40;;;1.83;;
12725;SDS011;6427;49.754;6.106;2023-05-19T10:07:39;4.07;;;1.40;;
12725;SDS011;6427;49.754;6.106;2023-05-19T10:10:08;2.90;;;1.40;;
12725;SDS011;6427;49.754;6.106;2023-05-19T10:12:35;4.47;;;1.80;;
12725;SDS011;6427;49.754;6.106;2023-05-19T10:15:02;3.30;;;1.70;;
12725;SDS011;6427;49.754;6.106;2023-05-19T10:17:30;3.97;;;1.87;;
12725;SDS011;6427;49.754;6.106;2023-05-19T10:19:58;3.73;;;1.40;;
12725;SDS011;6427;49.754;6.106;2023-05-19T10:22:25;6.53;;;1.87;;
12725;SDS011;6427;49.754;6.106;2023-05-19T10:24:53;3.97;;;1.63;;
12725;SDS011;6427;49.754;6.106;2023-05-19T10:27:21;3.70;;;1.80;;
12725;SDS011;6427;49.754;6.106;2023-05-19T10:29:48;4.43;;;1.83;;
12725;SDS011;6427;49.754;6.106;2023-05-19T10:32:17;5.03;;;1.70;;
12725;SDS011;6427;49.754;6.106;2023-05-19T10:34:52;11.00;;;2.10;;
12725;SDS011;6427;49.754;6.106;2023-05-19T10:37:23;4.62;;;1.90;;
12725;SDS011;6427;49.754;6.106;2023-05-19T10:39:49;3.07;;;1.57;;
12725;SDS011;6427;49.754;6.106;2023-05-19T10:42:37;5.73;;;1.47;;
12725;SDS011;6427;49.754;6.106;2023-05-19T10:44:57;5.43;;;1.80;;
12725;SDS011;6427;49.754;6.106;2023-05-19T10:47:24;7.57;;;1.77;;
12725;SDS011;6427;49.754;6.106;2023-05-19T10:49:52;3.63;;;1.53;;
12725;SDS011;6427;49.754;6.106;2023-05-19T10:52:19;4.27;;;1.93;;
12725;SDS011;6427;49.754;6.106;2023-05-19T10:54:48;6.00;;;1.50;;
12725;SDS011;6427;49.754;6.106;2023-05-19T10:57:16;5.67;;;1.60;;
12725;SDS011;6427;49.754;6.106;2023-05-19T10:59:44;6.03;;;1.92;;
12725;SDS011;6427;49.754;6.106;2023-05-19T11:02:55;6.40;;;1.98;;
12725;SDS011;6427;49.754;6.106;2023-05-19T11:04:48;5.67;;;1.80;;
12725;SDS011;6427;49.754;6.106;2023-05-19T11:07:18;5.43;;;1.50;;
12725;SDS011;6427;49.754;6.106;2023-05-19T11:09:52;6.10;;;1.70;;
12725;SDS011;6427;49.754;6.106;2023-05-19T11:12:22;3.97;;;1.60;;
12725;SDS011;6427;49.754;6.106;2023-05-19T11:14:56;4.53;;;1.50;;
12725;SDS011;6427;49.754;6.106;2023-05-19T11:17:23;4.47;;;1.43;;
12725;SDS011;6427;49.754;6.106;2023-05-19T11:19:54;3.27;;;1.40;;
12725;SDS011;6427;49.754;6.106;2023-05-19T11:22:25;6.70;;;1.57;;
12725;SDS011;6427;49.754;6.106;2023-05-19T11:24:54;2.40;;;1.50;;
12725;SDS011;6427;49.754;6.106;2023-05-19T11:27:25;5.10;;;1.60;;
12725;SDS011;6427;49.754;6.106;2023-05-19T11:32:33;4.73;;;1.97;;
12725;SDS011;6427;49.754;6.106;2023-05-19T11:35:00;5.27;;;1.67;;
12725;SDS011;6427;49.754;6.106;2023-05-19T11:37:30;4.80;;;1.40;;
12725;SDS011;6427;49.754;6.106;2023-05-19T11:39:55;4.47;;;1.80;;
12725;SDS011;6427;49.754;6.106;2023-05-19T11:42:24;3.33;;;1.43;;
12725;SDS011;6427;49.754;6.106;2023-05-19T11:44:54;3.70;;;2.00;;
12725;SDS011;6427;49.754;6.106;2023-05-19T11:47:20;3.23;;;1.40;;
12725;SDS011;6427;49.754;6.106;2023-05-19T11:49:49;4.23;;;1.80;;
12725;SDS011;6427;49.754;6.106;2023-05-19T11:52:18;2.93;;;1.80;;
12725;SDS011;6427;49.754;6.106;2023-05-19T11:54:46;2.73;;;1.40;;
12725;SDS011;6427;49.754;6.106;2023-05-19T11:57:13;3.37;;;1.50;;
12725;SDS011;6427;49.754;6.106;2023-05-19T11:59:41;4.87;;;1.77;;
12725;SDS011;6427;49.754;6.106;2023-05-19T12:04:39;4.37;;;1.63;;
12725;SDS011;6427;49.754;6.106;2023-05-19T12:07:07;4.07;;;1.60;;
12725;SDS011;6427;49.754;6.106;2023-05-19T12:09:34;5.65;;;2.10;;
12725;SDS011;6427;49.754;6.106;2023-05-19T12:12:02;6.37;;;1.80;;
12725;SDS011;6427;49.754;6.106;2023-05-19T12:14:30;5.03;;;1.60;;
12725;SDS011;6427;49.754;6.106;2023-05-19T12:16:57;8.33;;;1.37;;
12725;SDS011;6427;49.754;6.106;2023-05-19T12:19:25;4.03;;;1.50;;
12725;SDS011;6427;49.754;6.106;2023-05-19T12:21:53;5.80;;;1.73;;
12725;SDS011;6427;49.754;6.106;2023-05-19T12:24:21;3.70;;;1.53;;
12725;SDS011;6427;49.754;6.106;2023-05-19T12:26:49;6.40;;;2.13;;
12725;SDS011;6427;49.754;6.106;2023-05-19T12:29:17;5.13;;;1.83;;
12725;SDS011;6427;49.754;6.106;2023-05-19T12:31:45;4.83;;;1.50;;
12725;SDS011;6427;49.754;6.106;2023-05-19T12:34:12;4.10;;;1.37;;
12725;SDS011;6427;49.754;6.106;2023-05-19T12:36:41;4.83;;;1.70;;
12725;SDS011;6427;49.754;6.106;2023-05-19T12:39:08;4.77;;;1.40;;
12725;SDS011;6427;49.754;6.106;2023-05-19T12:41:36;3.70;;;1.80;;
12725;SDS011;6427;49.754;6.106;2023-05-19T12:44:12;10.33;;;1.77;;
12725;SDS011;6427;49.754;6.106;2023-05-19T12:46:31;4.10;;;1.40;;
12725;SDS011;6427;49.754;6.106;2023-05-19T12:48:59;4.13;;;1.60;;
12725;SDS011;6427;49.754;6.106;2023-05-19T12:51:26;5.50;;;2.03;;
12725;SDS011;6427;49.754;6.106;2023-05-19T12:53:54;6.80;;;2.00;;
12725;SDS011;6427;49.754;6.106;2023-05-19T12:56:24;3.67;;;1.70;;
12725;SDS011;6427;49.754;6.106;2023-05-19T12:58:52;4.78;;;2.10;;
12725;SDS011;6427;49.754;6.106;2023-05-19T13:01:18;2.97;;;1.70;;
12725;SDS011;6427;49.754;6.106;2023-05-19T13:03:45;5.60;;;1.83;;
12725;SDS011;6427;49.754;6.106;2023-05-19T13:06:13;6.03;;;1.90;;
12725;SDS011;6427;49.754;6.106;2023-05-19T13:08:41;3.57;;;1.60;;
12725;SDS011;6427;49.754;6.106;2023-05-19T13:11:08;3.90;;;1.60;;
12725;SDS011;6427;49.754;6.106;2023-05-19T13:13:36;4.83;;;1.43;;
12725;SDS011;6427;49.754;6.106;2023-05-19T13:16:03;4.13;;;1.33;;
12725;SDS011;6427;49.754;6.106;2023-05-19T13:18:31;3.27;;;1.90;;
12725;SDS011;6427;49.754;6.106;2023-05-19T13:20:59;3.13;;;1.63;;
12725;SDS011;6427;49.754;6.106;2023-05-19T13:23:26;2.83;;;1.80;;
12725;SDS011;6427;49.754;6.106;2023-05-19T13:25:55;5.53;;;1.57;;
12725;SDS011;6427;49.754;6.106;2023-05-19T13:28:22;3.37;;;1.50;;
12725;SDS011;6427;49.754;6.106;2023-05-19T13:30:50;6.37;;;1.97;;
12725;SDS011;6427;49.754;6.106;2023-05-19T13:33:18;7.83;;;1.90;;
12725;SDS011;6427;49.754;6.106;2023-05-19T13:35:45;4.33;;;1.80;;
12725;SDS011;6427;49.754;6.106;2023-05-19T13:38:13;4.83;;;1.80;;
12725;SDS011;6427;49.754;6.106;2023-05-19T13:40:40;4.80;;;1.53;;
12725;SDS011;6427;49.754;6.106;2023-05-19T13:43:09;4.77;;;1.50;;
12725;SDS011;6427;49.754;6.106;2023-05-19T13:45:37;3.07;;;1.83;;
12725;SDS011;6427;49.754;6.106;2023-05-19T13:48:04;8.03;;;1.47;;
12725;SDS011;6427;49.754;6.106;2023-05-19T13:50:32;3.90;;;1.60;;
12725;SDS011;6427;49.754;6.106;2023-05-19T13:53:00;4.37;;;1.60;;
12725;SDS011;6427;49.754;6.106;2023-05-19T13:55:28;4.17;;;1.73;;
12725;SDS011;6427;49.754;6.106;2023-05-19T13:57:55;7.53;;;1.60;;
12725;SDS011;6427;49.754;6.106;2023-05-19T14:00:23;4.20;;;1.80;;
12725;SDS011;6427;49.754;6.106;2023-05-19T14:02:51;5.75;;;1.55;;
12725;SDS011;6427;49.754;6.106;2023-05-19T14:05:18;6.80;;;1.67;;
12725;SDS011;6427;49.754;6.106;2023-05-19T14:07:47;2.90;;;1.73;;
12725;SDS011;6427;49.754;6.106;2023-05-19T14:10:14;3.83;;;1.53;;
12725;SDS011;6427;49.754;6.106;2023-05-19T14:12:42;5.80;;;1.50;;
12725;SDS011;6427;49.754;6.106;2023-05-19T14:15:10;5.83;;;1.50;;
12725;SDS011;6427;49.754;6.106;2023-05-19T14:17:38;8.53;;;1.60;;
12725;SDS011;6427;49.754;6.106;2023-05-19T14:20:06;4.20;;;1.37;;
12725;SDS011;6427;49.754;6.106;2023-05-19T14:22:33;5.37;;;1.77;;
12725;SDS011;6427;49.754;6.106;2023-05-19T14:25:01;4.87;;;1.40;;
12725;SDS011;6427;49.754;6.106;2023-05-19T14:27:29;2.83;;;1.63;;
12725;SDS011;6427;49.754;6.106;2023-05-19T14:29:56;6.87;;;1.73;;
12725;SDS011;6427;49.754;6.106;2023-05-19T14:32:25;3.00;;;1.67;;
12725;SDS011;6427;49.754;6.106;2023-05-19T14:34:53;4.67;;;1.77;;
12725;SDS011;6427;49.754;6.106;2023-05-19T14:37:21;3.27;;;1.60;;
12725;SDS011;6427;49.754;6.106;2023-05-19T14:39:48;5.33;;;1.40;;
12725;SDS011;6427;49.754;6.106;2023-05-19T14:42:16;6.47;;;1.73;;
12725;SDS011;6427;49.754;6.106;2023-05-19T14:44:43;4.37;;;1.63;;
12725;SDS011;6427;49.754;6.106;2023-05-19T14:47:11;6.50;;;1.77;;
12725;SDS011;6427;49.754;6.106;2023-05-19T14:49:39;5.93;;;1.67;;
12725;SDS011;6427;49.754;6.106;2023-05-19T14:52:06;3.40;;;1.40;;
12725;SDS011;6427;49.754;6.106;2023-05-19T14:54:34;3.67;;;1.50;;
12725;SDS011;6427;49.754;6.106;2023-05-19T14:57:02;7.43;;;1.63;;
12725;SDS011;6427;49.754;6.106;2023-05-19T14:59:29;4.33;;;1.70;;
12725;SDS011;6427;49.754;6.106;2023-05-19T15:01:57;3.90;;;1.40;;
12725;SDS011;6427;49.754;6.106;2023-05-19T15:04:24;3.62;;;1.40;;
12725;SDS011;6427;49.754;6.106;2023-05-19T15:06:52;3.97;;;1.40;;
12725;SDS011;6427;49.754;6.106;2023-05-19T15:09:20;5.53;;;1.60;;
12725;SDS011;6427;49.754;6.106;2023-05-19T15:11:47;3.60;;;1.63;;
12725;SDS011;6427;49.754;6.106;2023-05-19T15:14:15;6.07;;;1.53;;
12725;SDS011;6427;49.754;6.106;2023-05-19T15:16:43;6.33;;;1.77;;
12725;SDS011;6427;49.754;6.106;2023-05-19T15:19:10;3.47;;;1.50;;
12725;SDS011;6427;49.754;6.106;2023-05-19T15:21:38;2.50;;;1.40;;
12725;SDS011;6427;49.754;6.106;2023-05-19T15:24:06;4.43;;;1.50;;